Wila, Pennsylvania
Current Conditions -  °F | °C
As of 9:56 PM on Thursday 27 Nov 2014 (Local Time) from KCXY Reporting Station
Overcast Overcast  
Wind Chill: 29°   Ceiling: 8500
Heat Index: 34°   Visibility: 9mi
Dew Point: 29°   Wind: 6mph
Humidity: 82%   Direction: 270°W
Pressure: 30.12"   Gusts: NA
Location:  40.4932°N, 77.217°W
Report Text: KCXY 280256Z AUTO 27005KT 9SM SCT055 OVC085 01/M02 A3012 RMK AO2 SLP205 T00111017 51008
Loading
Personal Weather Stations






























Interactive Weather Map New forecast layout! Learn more

10-Day Weather Forecast

Advertisements
Track Severe Weather on mobile